AirNav   Textron
 
 1126 users online  

12Y Le Sueur Municipal Airport
Le Sueur, Minnesota, USA

GOING TO LE SUEUR?


FAA INFORMATION EFFECTIVE 09 NOVEMBER 2017

Location

FAA Identifier: 12Y
Lat/Long: 44-26-27.1971N / 093-54-57.0502W
44-26.453285N / 093-54.950837W
44.4408881 / -93.9158473
(estimated)
Elevation: 867.5 ft. / 264.4 m (surveyed)
Variation: 04E (1985)
From city: 2 miles S of LE SUEUR, MN
Time zone: UTC -6 (UTC -5 during Daylight Saving Time)
Zip code: 56058

Airport Operations

Airport use: Open to the public
Activation date: 12/1945
Control tower: no
ARTCC: MINNEAPOLIS CENTER
FSS: PRINCETON FLIGHT SERVICE STATION
NOTAMs facility: PNM (NOTAM-D service available)
Attendance: MON-FRI 0800-1700
Pattern altitude: 1667.5 ft. MSL
Wind indicator: lighted
Segmented circle: no
Lights: MIRL RY 13/31 PRESET TO LOW; INCR INTST AND ACTVT PAPI RYS 13 & 31 AND REIL RYS 13 & 31 - 122.9.
Beacon: white-green (lighted land airport)
Operates sunset to sunrise.

Airport Communications

CTAF: 122.9
WX AWOS-3PT at MKT (13 nm S): 118.175 (507-625-3726)

Nearby radio navigation aids

VOR radial/distance  VOR name  Freq  Var
MKTr352/13.3MANKATO VOR/DME110.8007E
FOWr299/27.4HALFWAY VOR/DME111.2002E
FCMr220/30.7FLYING CLOUD VOR/DME117.7001E
FGTr244/33.4FARMINGTON VORTAC115.7006E
MSPr225/39.8MINNEAPOLIS VOR/DME115.3002E

 
NDB name  Hdg/Dist  Freq  Var  ID
GLENCOE156/20.540703EGYL --. -.-- .-..
ST JAMES044/38.726001EJYG .--- -.-- --.

Airport Services

Fuel available: 100LL
SELF SVC FUEL AVAIL 24 HRS WITH CREDIT CARD.
Parking: tiedowns
Airframe service: MINOR
Powerplant service: MINOR

Runway Information

Runway 13/31

Dimensions: 3000 x 75 ft. / 914 x 23 m
Surface: asphalt, in good condition
Runway edge lights: medium intensity
Gradient: SE.
RUNWAY 13  RUNWAY 31
Latitude: 44-26.628037N44-26.278532N
Longitude: 093-55.194207W093-54.707465W
Elevation: 838.2 ft.867.4 ft.
Gradient: 1.0% UP1.0%
Traffic pattern: leftleft
Markings: nonprecision, in good conditionnonprecision, in good condition
Visual slope indicator: 4-light PAPI on left (2.75 degrees glide path)4-light PAPI on left (2.75 degrees glide path)
Runway end identifier lights: yesyes
Touchdown point: yes, no lightsyes, no lights
Obstructions: 22 ft. trees, 415 ft. from runway, 104 ft. left of centerline, 9:1 slope to clearnone

Airport Ownership and Management from official FAA records

Ownership: Publicly-owned
Owner: CITY OF LE SUEUR
203 S 2ND ST, BOX 176
LE SUEUR, MN 56058
Phone 507-665-6401
Manager: ANDREW CEMENSKI
505 BORIGHT ST., BOX 176
LE SUEUR, MN 56058
Phone (507) 593-8351

Airport Operational Statistics

Aircraft based on the field: 41
Single engine airplanes: 23
Helicopters: 18
    
Aircraft operations: avg 49/week *
59% local general aviation
39% transient general aviation
2% military
* for 12-month period ending 30 April 2016

Additional Remarks

DEER ON AND INVOF ARPT.
RY 13 END NOT VISIBLE FM RY 31 END.

Instrument Procedures

There are no published instrument procedures at 12Y.

Some nearby airports with instrument procedures:

KMKT - Mankato Regional Airport (13 nm S)
KGYL - Glencoe Municipal Airport (20 nm N)
KULM - New Ulm Municipal Airport (26 nm W)
KFBL - Faribault Municipal Airport-Liz Wall Strohfus Field (27 nm E)
KACQ - Waseca Municipal Airport (27 nm SE)
 
Loc | Ops | Rwys | IFR | FBO | Links
Com | Nav | Svcs | Stats | Notes


 
Area around 12Y (Le Sueur Municipal Airport)
 
Road maps at: MapQuest Bing Google
 
Aerial photo
WARNING: Photo may not be current or correct
Aerial photo of 12Y (Le Sueur Municipal Airport)
Photo taken 20-Oct-2007
from 3500 feet

Do you have a better or more recent aerial photo of Le Sueur Municipal Airport that you would like to share? If so, please send us your photo.

 
Sectional chart

 
Airport distance calculator
Flying to Le Sueur Municipal Airport? Find the distance to fly.

From to 12Y

Sunrise and sunset
Times for 21-Nov-2017
 Local
(UTC-6)
 Zulu
(UTC)
Morning civil twilight06:4912:49
Sunrise07:2113:21
Sunset16:4222:42
Evening civil twilight17:1423:14

Current date and time
Zulu (UTC)  21-Nov-2017 23:09:30
Local (UTC-6)  21-Nov-2017 17:09:30
 
METAR
KMKT 
13nm S 
212256Z AUTO 32011G20KT 10SM CLR M04/M12 A3026 RMK AO2 SLP264 T10441117 FZRANO
KGYL 
20nm N 
212254Z AUTO 29010KT 10SM CLR M04/M11 A3025 RMK AO2 T10371110
KULM 
26nm W 
212254Z AUTO 32011G21KT 10SM CLR M04/M13 A3029 RMK AO2
KFBL 
27nm E 
212254Z AUTO 29010KT 10SM CLR M04/M12 A3023 RMK AO2
TAF
KMKT 
13nm S 
212121Z 2121/2218 32014G21KT P6SM SKC FM220000 31010KT P6SM FEW250 FM221100 24004KT P6SM FEW250 FM221600 19009KT P6SM BKN250
NOTAMs
Click for the latest NOTAMs
NOTAMs are issued by the DoD/FAA and will open in a separate window not controlled by AirNav.

 

 
 

FBO, Fuel Providers, and Aircraft Ground Support

  
 Business Name 
 
 Contact 
 
 Services / Description 
 
Fuel Prices
 
Comments
  
City of Le Sueur 507-665-2266
no information available

If you are affiliated with City of Le Sueur and would like to show here your services, contact info, web link, logo, and more, click here
100LL
SS $4.35 
 Updated 07-Nov-2017
 
   write
SS=Self service
Update Fuel Prices
 

Would you like to see your business listed on this page?

 If your business provides an interesting product or service to pilots, flight crews, aircraft, or users of the Le Sueur Municipal Airport, you should consider listing it here.  To start the listing process, click on the button below
 
Add a business
 

Other Pages about Le Sueur Municipal Airport

PDF page(s) from the Minnesota Airport Directory
 
Update a link
 
Copyright © AirNav, LLC. All rights reserved. Privacy Policy  Contact